METAR Data
IDs: Format: Raw Decoded Include TAF

Data at: 0712 UTC 23 Oct 2018

METAR for:KHAO (Hamilton/Butler Cnty, OH, US)
Text:KHAO 230653Z AUTO 29003KT 10SM CLR 05/02 A3014 RMK AO2 SLP208 T00500017
Temperature: 5.0°C ( 41°F)
Dewpoint: 1.7°C ( 35°F) [RH = 79%]
Pressure (altimeter):30.14 inches Hg (1020.7 mb) [Sea level pressure: 1020.8 mb]
Winds:from the WNW (290 degrees) at 3 MPH (3 knots; 1.5 m/s)
Visibility:10 or more sm (16+ km)
Ceiling:at least 12,000 feet AGL
Clouds:sky clear below 12,000 feet AGL
QC Flag:automated observation with no human augmentation